Sunday, November 18, 2018, 2:23 PM GMT
Back to Local

CYHZ, Halifax International Airport

Location: , , Canada Lat: 44.883
Local Time: 2:23 PM GMT (14:23 GMT) Lon: -63.5
Time Zone: GMT Elev: 475 ft

Show me the last for .
Show Coded

Time T Td Feel RH Dir Speed Gust Alt SLP Vis Weather Sky Remarks
2018-11-18 14:00 28 21 16 74 340° 10 17 30.26 30.28 15 FEW023 None
2018-11-18 13:00 28 21 17 74 330° 15 - 30.24 30.26 15 FEW025 FEW070 None
2018-11-18 12:00 27 23 16 86 320° 12 - 30.20 30.23 15 FEW025 FEW070 None
2018-11-18 11:00 28 23 18 79 310° 12 - 30.17 30.19 15 FEW025 SCT070 None
2018-11-18 10:00 28 25 20 86 330° 9 - 30.13 30.15 15 SCT026 BKN080 None
2018-11-18 09:00 32 25 22 74 300° 14 - 30.09 30.11 15 BKN081 None
2018-11-18 08:00 30 27 21 86 280° 10 - 30.07 30.09 15 OVC083 None
2018-11-18 07:00 32 27 24 80 330° 10 - 30.04 30.06 15 OVC064 None
2018-11-18 06:00 32 27 26 80 290° 7 - 30.05 30.07 15 OVC059 None
2018-11-18 05:00 32 27 24 80 290° 9 - 30.04 30.07 15 BKN030 BKN160 None
2018-11-18 04:00 34 27 24 74 290° 15 - 30.02 30.04 15 BKN028 None
2018-11-18 03:00 32 28 23 86 260° 13 - 30.00 30.03 15 OVC028 None
2018-11-18 02:00 32 28 26 86 270° 7 - 29.99 30.01 15 BKN029 None
2018-11-18 01:00 32 28 25 86 280° 8 - 29.98 30.00 15 BKN032 None
2018-11-18 00:00 32 27 25 80 290° 8 - 29.96 29.98 15 BKN037 None
2018-11-17 23:00 32 27 23 80 310° 12 - 29.95 29.97 15 OVC031 None
2018-11-17 22:00 32 27 20 80 290° 13 20 29.93 29.95 15 OVC023 None
2018-11-17 21:00 32 27 19 80 290° 15 25 29.89 29.91 15 BKN028 None
2018-11-17 20:00 32 27 23 80 300° 12 - 29.85 29.88 15 BKN026 None
2018-11-17 19:00 32 27 19 80 280° 14 24 29.83 29.85 15 BKN024 None
2018-11-17 18:00 32 27 18 80 290° 20 28 29.83 29.85 15 BKN024 None
2018-11-17 17:00 32 28 18 86 280° 20 26 29.81 29.83 15 BKN026 None
2018-11-17 16:00 32 28 18 86 290° 18 30 29.79 29.81 15 SCT018 BKN027 None
2018-11-17 15:00 32 30 19 92 290° 15 23 29.78 29.80 10 SCT012 OVC020 None
2018-11-17 14:37 32 30 20 92 290° 15 21 29.78 29.80 4 -SHGSSN OVC014 None
2018-11-17 14:26 32 30 19 92 290° 15 23 29.77 29.79 10 -SHSN FEW010 BKN015 None

Support USWX by starting your Amazon purchase here.